sensor_id;sensor_type;location;lat;lon;timestamp;pressure;altitude;pressure_sealevel;temperature;humidity
41703;BME280;861;48.808;9.006;2022-10-16T00:01:42;96975.84;;;17.16;87.51
41703;BME280;861;48.808;9.006;2022-10-16T00:04:09;96978.16;;;17.17;86.52
41703;BME280;861;48.808;9.006;2022-10-16T00:06:36;96985.66;;;17.17;86.67
41703;BME280;861;48.808;9.006;2022-10-16T00:09:02;96974.63;;;17.17;86.31
41703;BME280;861;48.808;9.006;2022-10-16T00:11:33;96969.81;;;17.05;86.77
41703;BME280;861;48.808;9.006;2022-10-16T00:14:15;96976.09;;;17.05;87.38
41703;BME280;861;48.808;9.006;2022-10-16T00:16:42;96977.72;;;17.03;87.19
41703;BME280;861;48.808;9.006;2022-10-16T00:19:11;96976.69;;;16.97;87.93
41703;BME280;861;48.808;9.006;2022-10-16T00:21:38;96978.59;;;17.00;87.49
41703;BME280;861;48.808;9.006;2022-10-16T00:24:09;96982.63;;;16.95;87.57
41703;BME280;861;48.808;9.006;2022-10-16T00:26:38;96977.38;;;17.01;87.16
41703;BME280;861;48.808;9.006;2022-10-16T00:29:06;96971.97;;;17.13;86.92
41703;BME280;861;48.808;9.006;2022-10-16T00:31:34;96980.13;;;17.01;87.13
41703;BME280;861;48.808;9.006;2022-10-16T00:34:00;96984.53;;;16.98;87.32
41703;BME280;861;48.808;9.006;2022-10-16T00:36:27;96983.59;;;17.05;86.89
41703;BME280;861;48.808;9.006;2022-10-16T00:38:58;96987.28;;;17.14;86.73
41703;BME280;861;48.808;9.006;2022-10-16T00:41:28;96991.50;;;17.19;85.84
41703;BME280;861;48.808;9.006;2022-10-16T00:43:59;96988.06;;;16.99;86.70
41703;BME280;861;48.808;9.006;2022-10-16T00:46:40;96979.69;;;17.02;86.64
41703;BME280;861;48.808;9.006;2022-10-16T00:49:21;96984.59;;;16.95;87.08
41703;BME280;861;48.808;9.006;2022-10-16T00:51:52;96974.28;;;16.99;87.11
41703;BME280;861;48.808;9.006;2022-10-16T00:54:32;96973.69;;;17.07;86.84
41703;BME280;861;48.808;9.006;2022-10-16T00:57:05;96987.41;;;16.91;87.35
41703;BME280;861;48.808;9.006;2022-10-16T00:59:37;96991.84;;;16.69;88.91
41703;BME280;861;48.808;9.006;2022-10-16T01:02:13;96998.97;;;16.66;89.20
41703;BME280;861;48.808;9.006;2022-10-16T01:04:52;96988.94;;;16.76;88.73
41703;BME280;861;48.808;9.006;2022-10-16T01:11:16;97001.84;;;16.79;88.34
41703;BME280;861;48.808;9.006;2022-10-16T01:13:58;97002.63;;;16.79;88.16
41703;BME280;861;48.808;9.006;2022-10-16T01:16:49;96983.88;;;16.74;87.63
41703;BME280;861;48.808;9.006;2022-10-16T01:20:10;96995.94;;;16.61;88.92
41703;BME280;861;48.808;9.006;2022-10-16T01:31:39;96987.97;;;16.66;88.89
41703;BME280;861;48.808;9.006;2022-10-16T01:34:34;96982.75;;;16.72;89.04
41703;BME280;861;48.808;9.006;2022-10-16T01:37:15;96984.81;;;16.68;89.01
41703;BME280;861;48.808;9.006;2022-10-16T01:39:52;96993.31;;;16.73;88.62
41703;BME280;861;48.808;9.006;2022-10-16T01:42:37;96996.13;;;16.54;89.54
41703;BME280;861;48.808;9.006;2022-10-16T01:45:13;96982.38;;;16.54;89.84
41703;BME280;861;48.808;9.006;2022-10-16T01:47:47;96972.75;;;16.62;88.86
41703;BME280;861;48.808;9.006;2022-10-16T01:50:19;96977.41;;;16.65;88.52
41703;BME280;861;48.808;9.006;2022-10-16T01:52:54;96980.53;;;16.67;88.94
41703;BME280;861;48.808;9.006;2022-10-16T01:55:36;96969.53;;;16.67;88.85
41703;BME280;861;48.808;9.006;2022-10-16T01:58:13;96972.97;;;16.51;89.52
41703;BME280;861;48.808;9.006;2022-10-16T02:00:45;96981.00;;;16.62;89.54
41703;BME280;861;48.808;9.006;2022-10-16T02:03:19;96977.66;;;16.70;88.36
41703;BME280;861;48.808;9.006;2022-10-16T02:05:57;96980.16;;;16.65;89.09
41703;BME280;861;48.808;9.006;2022-10-16T02:08:29;96986.44;;;16.65;88.90
41703;BME280;861;48.808;9.006;2022-10-16T02:11:00;96973.13;;;16.64;88.77
41703;BME280;861;48.808;9.006;2022-10-16T02:13:44;96974.03;;;16.57;89.36
41703;BME280;861;48.808;9.006;2022-10-16T02:16:15;96982.00;;;16.52;89.87
41703;BME280;861;48.808;9.006;2022-10-16T02:18:44;96990.81;;;16.43;90.05
41703;BME280;861;48.808;9.006;2022-10-16T02:21:30;96990.13;;;16.59;89.93
41703;BME280;861;48.808;9.006;2022-10-16T02:27:57;96980.56;;;16.44;89.81
41703;BME280;861;48.808;9.006;2022-10-16T02:30:37;96980.38;;;16.35;90.36
41703;BME280;861;48.808;9.006;2022-10-16T02:33:12;96983.75;;;16.42;89.91
41703;BME280;861;48.808;9.006;2022-10-16T02:35:46;96982.94;;;16.45;90.46
41703;BME280;861;48.808;9.006;2022-10-16T02:38:20;96984.41;;;16.50;89.88
41703;BME280;861;48.808;9.006;2022-10-16T02:40:49;96987.28;;;16.43;90.26
41703;BME280;861;48.808;9.006;2022-10-16T02:43:16;96990.53;;;16.38;90.09
41703;BME280;861;48.808;9.006;2022-10-16T02:45:43;96985.09;;;16.34;91.03
41703;BME280;861;48.808;9.006;2022-10-16T02:48:09;96994.72;;;16.46;90.60
41703;BME280;861;48.808;9.006;2022-10-16T02:50:35;96995.53;;;16.43;90.56
41703;BME280;861;48.808;9.006;2022-10-16T02:53:02;96994.47;;;16.37;91.26
41703;BME280;861;48.808;9.006;2022-10-16T02:55:28;97000.19;;;16.46;90.53
41703;BME280;861;48.808;9.006;2022-10-16T02:57:55;97001.16;;;16.36;90.96
41703;BME280;861;48.808;9.006;2022-10-16T03:00:21;96995.53;;;16.43;90.23
41703;BME280;861;48.808;9.006;2022-10-16T03:02:48;96996.31;;;16.43;90.21
41703;BME280;861;48.808;9.006;2022-10-16T03:05:15;96995.81;;;16.48;90.13
41703;BME280;861;48.808;9.006;2022-10-16T03:07:41;97001.69;;;16.50;89.48
41703;BME280;861;48.808;9.006;2022-10-16T03:10:08;97001.13;;;16.59;88.90
41703;BME280;861;48.808;9.006;2022-10-16T03:12:35;96999.28;;;16.52;89.44
41703;BME280;861;48.808;9.006;2022-10-16T03:15:01;97007.53;;;16.52;89.31
41703;BME280;861;48.808;9.006;2022-10-16T03:17:28;97008.66;;;16.55;89.52
41703;BME280;861;48.808;9.006;2022-10-16T03:19:54;97000.75;;;16.57;89.11
41703;BME280;861;48.808;9.006;2022-10-16T03:22:20;97005.47;;;16.56;88.90
41703;BME280;861;48.808;9.006;2022-10-16T03:24:46;97006.69;;;16.55;89.01
41703;BME280;861;48.808;9.006;2022-10-16T03:27:12;97010.91;;;16.60;88.46
41703;BME280;861;48.808;9.006;2022-10-16T03:29:38;97005.75;;;16.62;88.43
41703;BME280;861;48.808;9.006;2022-10-16T03:32:04;97006.69;;;16.55;88.93
41703;BME280;861;48.808;9.006;2022-10-16T03:34:31;97004.63;;;16.59;88.72
41703;BME280;861;48.808;9.006;2022-10-16T03:36:57;97008.72;;;16.51;89.59
41703;BME280;861;48.808;9.006;2022-10-16T03:39:23;97011.06;;;16.53;88.63
41703;BME280;861;48.808;9.006;2022-10-16T03:41:50;97009.75;;;16.38;89.68
41703;BME280;861;48.808;9.006;2022-10-16T03:44:16;97012.88;;;16.40;89.85
41703;BME280;861;48.808;9.006;2022-10-16T03:46:42;97000.03;;;16.33;90.14
41703;BME280;861;48.808;9.006;2022-10-16T03:49:08;97001.88;;;16.40;90.29
41703;BME280;861;48.808;9.006;2022-10-16T03:51:35;97010.19;;;16.36;90.31
41703;BME280;861;48.808;9.006;2022-10-16T03:54:01;97013.34;;;16.15;90.66
41703;BME280;861;48.808;9.006;2022-10-16T03:56:27;97010.69;;;16.31;90.36
41703;BME280;861;48.808;9.006;2022-10-16T03:58:53;97017.03;;;16.28;90.76
41703;BME280;861;48.808;9.006;2022-10-16T04:01:20;97020.84;;;16.15;91.44
41703;BME280;861;48.808;9.006;2022-10-16T04:03:46;97018.41;;;16.17;90.48
41703;BME280;861;48.808;9.006;2022-10-16T04:06:13;97014.84;;;16.20;91.68
41703;BME280;861;48.808;9.006;2022-10-16T04:08:39;97017.75;;;16.32;90.18
41703;BME280;861;48.808;9.006;2022-10-16T04:11:08;97015.19;;;16.41;90.15
41703;BME280;861;48.808;9.006;2022-10-16T04:13:35;97011.59;;;16.25;90.71
41703;BME280;861;48.808;9.006;2022-10-16T04:16:02;97013.84;;;16.10;91.22
41703;BME280;861;48.808;9.006;2022-10-16T04:18:28;97011.13;;;16.10;91.32
41703;BME280;861;48.808;9.006;2022-10-16T04:20:54;97007.50;;;15.94;92.59
41703;BME280;861;48.808;9.006;2022-10-16T04:23:21;97012.19;;;15.93;93.27
41703;BME280;861;48.808;9.006;2022-10-16T04:25:49;97008.91;;;16.02;91.33
41703;BME280;861;48.808;9.006;2022-10-16T04:28:15;97014.50;;;16.18;91.06
41703;BME280;861;48.808;9.006;2022-10-16T04:30:41;97015.97;;;16.22;90.59
41703;BME280;861;48.808;9.006;2022-10-16T04:33:09;97016.59;;;16.30;90.21
41703;BME280;861;48.808;9.006;2022-10-16T04:37:42;97019.34;;;16.30;89.61
41703;BME280;861;48.808;9.006;2022-10-16T04:40:08;97018.06;;;16.34;89.94
41703;BME280;861;48.808;9.006;2022-10-16T04:42:34;97024.00;;;16.33;89.98
41703;BME280;861;48.808;9.006;2022-10-16T04:45:00;97035.69;;;16.17;90.79
41703;BME280;861;48.808;9.006;2022-10-16T04:47:27;97041.34;;;16.10;91.22
41703;BME280;861;48.808;9.006;2022-10-16T04:49:53;97043.50;;;15.99;91.80
41703;BME280;861;48.808;9.006;2022-10-16T04:52:19;97047.94;;;16.13;91.19
41703;BME280;861;48.808;9.006;2022-10-16T04:54:47;97038.22;;;16.08;90.94
41703;BME280;861;48.808;9.006;2022-10-16T04:57:13;97052.81;;;16.25;90.51
41703;BME280;861;48.808;9.006;2022-10-16T04:59:39;97049.16;;;16.31;90.19
41703;BME280;861;48.808;9.006;2022-10-16T05:02:05;97054.66;;;16.31;90.21
41703;BME280;861;48.808;9.006;2022-10-16T05:04:31;97055.44;;;16.32;90.07
41703;BME280;861;48.808;9.006;2022-10-16T05:06:57;97047.03;;;16.19;91.14
41703;BME280;861;48.808;9.006;2022-10-16T05:09:24;97046.63;;;16.21;90.35
41703;BME280;861;48.808;9.006;2022-10-16T05:11:50;97047.03;;;16.39;88.97
41703;BME280;861;48.808;9.006;2022-10-16T05:16:25;97040.53;;;16.10;90.84
41703;BME280;861;48.808;9.006;2022-10-16T05:18:53;97029.59;;;15.87;92.33
41703;BME280;861;48.808;9.006;2022-10-16T05:21:21;97037.63;;;15.97;91.44
41703;BME280;861;48.808;9.006;2022-10-16T05:23:47;97044.81;;;15.91;91.76
41703;BME280;861;48.808;9.006;2022-10-16T05:26:14;97034.16;;;15.74;92.88
41703;BME280;861;48.808;9.006;2022-10-16T05:28:40;97048.16;;;15.79;92.57
41703;BME280;861;48.808;9.006;2022-10-16T05:31:09;97046.78;;;15.91;92.47
41703;BME280;861;48.808;9.006;2022-10-16T05:33:36;97053.69;;;15.99;91.67
41703;BME280;861;48.808;9.006;2022-10-16T05:36:08;97060.19;;;16.08;91.36
41703;BME280;861;48.808;9.006;2022-10-16T05:38:37;97060.25;;;16.05;91.19
41703;BME280;861;48.808;9.006;2022-10-16T05:41:05;97055.13;;;16.07;91.34
41703;BME280;861;48.808;9.006;2022-10-16T05:43:33;97056.97;;;16.33;89.29
41703;BME280;861;48.808;9.006;2022-10-16T05:46:05;97060.78;;;16.39;89.63
41703;BME280;861;48.808;9.006;2022-10-16T05:48:32;97065.56;;;16.35;89.59
41703;BME280;861;48.808;9.006;2022-10-16T05:51:04;97066.28;;;16.39;89.65
41703;BME280;861;48.808;9.006;2022-10-16T05:53:38;97078.31;;;16.25;90.29
41703;BME280;861;48.808;9.006;2022-10-16T05:56:10;97075.56;;;16.25;89.74
41703;BME280;861;48.808;9.006;2022-10-16T05:58:39;97081.97;;;16.19;90.04
41703;BME280;861;48.808;9.006;2022-10-16T06:01:18;97076.97;;;16.14;90.33
41703;BME280;861;48.808;9.006;2022-10-16T06:03:46;97074.63;;;16.12;90.40
41703;BME280;861;48.808;9.006;2022-10-16T06:06:22;97088.66;;;16.18;90.01
41703;BME280;861;48.808;9.006;2022-10-16T06:08:54;97075.19;;;16.04;91.24
41703;BME280;861;48.808;9.006;2022-10-16T06:11:27;97081.28;;;16.15;91.03
41703;BME280;861;48.808;9.006;2022-10-16T06:14:00;97094.22;;;16.14;90.82
41703;BME280;861;48.808;9.006;2022-10-16T06:16:29;97085.03;;;16.24;90.33
41703;BME280;861;48.808;9.006;2022-10-16T06:18:56;97082.97;;;16.28;90.44
41703;BME280;861;48.808;9.006;2022-10-16T06:21:27;97088.47;;;16.28;89.84
41703;BME280;861;48.808;9.006;2022-10-16T06:23:56;97087.69;;;16.28;90.14
41703;BME280;861;48.808;9.006;2022-10-16T06:26:29;97091.94;;;16.32;89.80
41703;BME280;861;48.808;9.006;2022-10-16T06:28:59;97090.72;;;16.33;89.88
41703;BME280;861;48.808;9.006;2022-10-16T06:31:27;97091.84;;;16.36;90.27
41703;BME280;861;48.808;9.006;2022-10-16T06:33:57;97089.28;;;16.48;89.78
41703;BME280;861;48.808;9.006;2022-10-16T06:36:26;97091.47;;;16.57;89.19
41703;BME280;861;48.808;9.006;2022-10-16T06:38:53;97101.06;;;16.49;89.49
41703;BME280;861;48.808;9.006;2022-10-16T06:41:22;97107.84;;;16.41;89.31
41703;BME280;861;48.808;9.006;2022-10-16T06:43:49;97107.59;;;16.35;90.18
41703;BME280;861;48.808;9.006;2022-10-16T06:46:23;97112.94;;;16.42;90.36
41703;BME280;861;48.808;9.006;2022-10-16T06:48:50;97118.34;;;16.49;89.85
41703;BME280;861;48.808;9.006;2022-10-16T06:51:21;97118.84;;;16.41;89.77
41703;BME280;861;48.808;9.006;2022-10-16T06:53:54;97121.31;;;16.35;90.33
41703;BME280;861;48.808;9.006;2022-10-16T06:56:28;97128.41;;;16.33;90.79
41703;BME280;861;48.808;9.006;2022-10-16T06:58:57;97123.50;;;16.44;90.13
41703;BME280;861;48.808;9.006;2022-10-16T07:01:25;97124.53;;;16.53;89.96
41703;BME280;861;48.808;9.006;2022-10-16T07:03:53;97133.41;;;16.61;89.97
41703;BME280;861;48.808;9.006;2022-10-16T07:06:24;97141.03;;;16.53;90.54
41703;BME280;861;48.808;9.006;2022-10-16T07:08:52;97143.50;;;16.48;91.10
41703;BME280;861;48.808;9.006;2022-10-16T07:11:23;97151.56;;;16.35;91.54
41703;BME280;861;48.808;9.006;2022-10-16T07:13:51;97160.41;;;16.46;90.86
41703;BME280;861;48.808;9.006;2022-10-16T07:16:22;97157.69;;;16.43;91.47
41703;BME280;861;48.808;9.006;2022-10-16T07:18:50;97158.84;;;16.45;91.34
41703;BME280;861;48.808;9.006;2022-10-16T07:21:21;97170.09;;;16.54;90.80
41703;BME280;861;48.808;9.006;2022-10-16T07:23:59;97173.06;;;16.63;91.06
41703;BME280;861;48.808;9.006;2022-10-16T07:26:30;97184.06;;;16.63;90.24
41703;BME280;861;48.808;9.006;2022-10-16T07:28:58;97180.25;;;16.57;90.54
41703;BME280;861;48.808;9.006;2022-10-16T07:31:26;97181.50;;;16.53;90.84
41703;BME280;861;48.808;9.006;2022-10-16T07:33:53;97174.53;;;16.68;90.61
41703;BME280;861;48.808;9.006;2022-10-16T07:36:21;97177.31;;;16.88;87.69
41703;BME280;861;48.808;9.006;2022-10-16T07:38:47;97169.81;;;16.88;88.67
41703;BME280;861;48.808;9.006;2022-10-16T07:41:18;97174.88;;;16.90;88.66
41703;BME280;861;48.808;9.006;2022-10-16T07:43:53;97180.69;;;16.95;88.74
41703;BME280;861;48.808;9.006;2022-10-16T07:46:22;97186.13;;;16.99;89.49
41703;BME280;861;48.808;9.006;2022-10-16T07:48:49;97190.00;;;17.01;89.42
41703;BME280;861;48.808;9.006;2022-10-16T07:51:21;97189.50;;;17.06;89.41
41703;BME280;861;48.808;9.006;2022-10-16T07:53:49;97194.28;;;17.02;89.47
41703;BME280;861;48.808;9.006;2022-10-16T07:56:19;97197.47;;;17.20;87.81
41703;BME280;861;48.808;9.006;2022-10-16T07:58:47;97191.19;;;17.20;88.43
41703;BME280;861;48.808;9.006;2022-10-16T08:01:17;97191.03;;;17.27;89.24
41703;BME280;861;48.808;9.006;2022-10-16T08:03:52;97195.03;;;17.42;86.92
41703;BME280;861;48.808;9.006;2022-10-16T08:06:22;97198.56;;;17.42;87.59
41703;BME280;861;48.808;9.006;2022-10-16T08:08:49;97203.09;;;17.52;87.74
41703;BME280;861;48.808;9.006;2022-10-16T08:11:15;97200.63;;;17.58;87.37
41703;BME280;861;48.808;9.006;2022-10-16T08:13:42;97194.88;;;17.68;88.05
41703;BME280;861;48.808;9.006;2022-10-16T08:16:08;97200.91;;;17.79;87.59
41703;BME280;861;48.808;9.006;2022-10-16T08:18:38;97205.06;;;17.87;86.54
41703;BME280;861;48.808;9.006;2022-10-16T08:21:14;97219.97;;;17.90;84.53
41703;BME280;861;48.808;9.006;2022-10-16T08:23:42;97223.84;;;17.92;86.20
41703;BME280;861;48.808;9.006;2022-10-16T08:26:10;97223.16;;;17.88;87.51
41703;BME280;861;48.808;9.006;2022-10-16T08:28:38;97230.66;;;18.04;85.18
41703;BME280;861;48.808;9.006;2022-10-16T08:31:16;97220.47;;;18.17;82.51
41703;BME280;861;48.808;9.006;2022-10-16T08:33:44;97225.31;;;18.13;83.55
41703;BME280;861;48.808;9.006;2022-10-16T08:36:15;97228.00;;;18.16;83.95
41703;BME280;861;48.808;9.006;2022-10-16T08:38:42;97222.91;;;18.15;84.08
41703;BME280;861;48.808;9.006;2022-10-16T08:50:29;97236.78;;;18.11;83.45
41703;BME280;861;48.808;9.006;2022-10-16T08:52:59;97240.13;;;18.19;83.02
41703;BME280;861;48.808;9.006;2022-10-16T08:55:45;97221.88;;;18.25;82.41
41703;BME280;861;48.808;9.006;2022-10-16T08:58:35;97232.91;;;18.25;83.53
41703;BME280;861;48.808;9.006;2022-10-16T09:01:16;97232.22;;;18.21;82.72
41703;BME280;861;48.808;9.006;2022-10-16T09:21:46;97244.25;;;18.75;81.37
41703;BME280;861;48.808;9.006;2022-10-16T09:24:23;97254.34;;;18.82;80.64
41703;BME280;861;48.808;9.006;2022-10-16T09:26:52;97257.66;;;18.77;80.20
41703;BME280;861;48.808;9.006;2022-10-16T09:29:21;97248.66;;;18.73;80.19
41703;BME280;861;48.808;9.006;2022-10-16T09:31:54;97249.88;;;18.88;81.51
41703;BME280;861;48.808;9.006;2022-10-16T09:34:36;97252.63;;;18.88;79.23
41703;BME280;861;48.808;9.006;2022-10-16T09:37:17;97255.22;;;18.79;81.29
41703;BME280;861;48.808;9.006;2022-10-16T09:39:52;97252.72;;;18.84;79.87
41703;BME280;861;48.808;9.006;2022-10-16T09:42:34;97253.44;;;19.01;78.69
41703;BME280;861;48.808;9.006;2022-10-16T09:45:04;97257.94;;;18.95;79.74
41703;BME280;861;48.808;9.006;2022-10-16T09:47:37;97265.19;;;19.05;80.30
41703;BME280;861;48.808;9.006;2022-10-16T09:50:28;97267.78;;;19.24;81.35
41703;BME280;861;48.808;9.006;2022-10-16T09:53:14;97283.97;;;19.38;80.15
41703;BME280;861;48.808;9.006;2022-10-16T09:55:52;97272.97;;;19.51;80.07
41703;BME280;861;48.808;9.006;2022-10-16T09:58:24;97272.78;;;19.58;79.22
41703;BME280;861;48.808;9.006;2022-10-16T10:00:55;97269.66;;;19.56;78.34
41703;BME280;861;48.808;9.006;2022-10-16T10:03:48;97276.97;;;19.62;78.11
41703;BME280;861;48.808;9.006;2022-10-16T10:06:27;97278.69;;;19.72;77.78
41703;BME280;861;48.808;9.006;2022-10-16T10:09:39;97287.66;;;19.89;79.07
41703;BME280;861;48.808;9.006;2022-10-16T10:12:22;97278.72;;;19.98;77.67
41703;BME280;861;48.808;9.006;2022-10-16T10:15:04;97286.22;;;20.10;76.32
41703;BME280;861;48.808;9.006;2022-10-16T10:17:33;97289.69;;;20.26;77.11
41703;BME280;861;48.808;9.006;2022-10-16T10:20:37;97289.78;;;20.60;72.32
41703;BME280;861;48.808;9.006;2022-10-16T10:23:24;97283.69;;;20.65;72.58
41703;BME280;861;48.808;9.006;2022-10-16T10:26:05;97287.78;;;20.73;72.00
41703;BME280;861;48.808;9.006;2022-10-16T10:28:57;97293.53;;;20.66;72.70
41703;BME280;861;48.808;9.006;2022-10-16T10:34:55;97300.03;;;20.72;73.10
41703;BME280;861;48.808;9.006;2022-10-16T10:38:02;97297.84;;;20.80;74.29
41703;BME280;861;48.808;9.006;2022-10-16T10:44:27;97297.75;;;21.17;73.95
41703;BME280;861;48.808;9.006;2022-10-16T10:58:12;97290.16;;;22.56;69.51
41703;BME280;861;48.808;9.006;2022-10-16T11:01:14;97289.59;;;22.71;67.18
41703;BME280;861;48.808;9.006;2022-10-16T11:06:55;97282.25;;;23.04;67.54
41703;BME280;861;48.808;9.006;2022-10-16T11:09:38;97283.50;;;23.57;69.57
41703;BME280;861;48.808;9.006;2022-10-16T11:12:27;97285.34;;;23.60;65.75
41703;BME280;861;48.808;9.006;2022-10-16T11:18:21;97286.44;;;23.26;64.14
41703;BME280;861;48.808;9.006;2022-10-16T11:21:08;97287.34;;;23.32;65.42
41703;BME280;861;48.808;9.006;2022-10-16T11:24:08;97293.03;;;23.11;66.33
41703;BME280;861;48.808;9.006;2022-10-16T11:26:45;97292.44;;;23.16;67.20
41703;BME280;861;48.808;9.006;2022-10-16T11:29:30;97291.50;;;23.19;65.62
41703;BME280;861;48.808;9.006;2022-10-16T11:32:11;97287.78;;;23.22;68.14
41703;BME280;861;48.808;9.006;2022-10-16T11:35:02;97285.22;;;23.27;67.07
41703;BME280;861;48.808;9.006;2022-10-16T11:37:49;97277.66;;;23.37;65.40
41703;BME280;861;48.808;9.006;2022-10-16T11:40:37;97272.06;;;23.55;67.87
41703;BME280;861;48.808;9.006;2022-10-16T11:43:32;97282.38;;;23.81;64.36
41703;BME280;861;48.808;9.006;2022-10-16T11:46:19;97290.09;;;24.04;65.40
41703;BME280;861;48.808;9.006;2022-10-16T11:49:15;97282.75;;;24.25;65.43
41703;BME280;861;48.808;9.006;2022-10-16T11:52:18;97276.78;;;24.41;64.68
41703;BME280;861;48.808;9.006;2022-10-16T11:55:21;97276.56;;;24.54;62.60
41703;BME280;861;48.808;9.006;2022-10-16T11:58:04;97267.00;;;24.46;61.45
41703;BME280;861;48.808;9.006;2022-10-16T12:00:53;97277.72;;;24.47;64.02
41703;BME280;861;48.808;9.006;2022-10-16T12:07:05;97265.41;;;24.63;63.09
41703;BME280;861;48.808;9.006;2022-10-16T12:09:40;97268.34;;;24.59;59.68
41703;BME280;861;48.808;9.006;2022-10-16T12:12:44;97275.09;;;24.44;59.29
41703;BME280;861;48.808;9.006;2022-10-16T12:15:34;97270.00;;;24.33;63.89
41703;BME280;861;48.808;9.006;2022-10-16T12:18:01;97273.88;;;24.36;64.77
41703;BME280;861;48.808;9.006;2022-10-16T12:20:33;97269.41;;;24.29;62.08
41703;BME280;861;48.808;9.006;2022-10-16T12:23:06;97269.16;;;24.51;60.07
41703;BME280;861;48.808;9.006;2022-10-16T12:25:57;97276.69;;;24.68;60.38
41703;BME280;861;48.808;9.006;2022-10-16T12:28:32;97276.44;;;24.81;58.82
41703;BME280;861;48.808;9.006;2022-10-16T12:31:07;97279.63;;;25.12;61.71
41703;BME280;861;48.808;9.006;2022-10-16T12:33:42;97276.19;;;25.40;59.78
41703;BME280;861;48.808;9.006;2022-10-16T12:36:33;97268.53;;;25.65;59.91
41703;BME280;861;48.808;9.006;2022-10-16T12:39:02;97271.53;;;25.90;60.56
41703;BME280;861;48.808;9.006;2022-10-16T12:41:36;97265.50;;;26.06;55.77
41703;BME280;861;48.808;9.006;2022-10-16T12:44:23;97271.03;;;26.35;56.97
41703;BME280;861;48.808;9.006;2022-10-16T12:46:50;97274.66;;;26.56;54.92
41703;BME280;861;48.808;9.006;2022-10-16T12:49:31;97282.38;;;26.61;57.09
41703;BME280;861;48.808;9.006;2022-10-16T12:52:03;97282.19;;;26.64;56.34
41703;BME280;861;48.808;9.006;2022-10-16T12:54:37;97283.25;;;26.52;54.67
41703;BME280;861;48.808;9.006;2022-10-16T12:58:21;97280.31;;;26.27;55.19
41703;BME280;861;48.808;9.006;2022-10-16T13:00:26;97278.78;;;26.11;55.90
41703;BME280;861;48.808;9.006;2022-10-16T13:03:29;97279.47;;;26.06;57.00
41703;BME280;861;48.808;9.006;2022-10-16T13:09:51;97277.91;;;26.34;58.87
41703;BME280;861;48.808;9.006;2022-10-16T13:13:00;97288.63;;;26.56;58.90
41703;BME280;861;48.808;9.006;2022-10-16T13:22:30;97287.53;;;26.19;55.52
41703;BME280;861;48.808;9.006;2022-10-16T13:25:30;97289.16;;;25.96;55.57
41703;BME280;861;48.808;9.006;2022-10-16T13:28:30;97287.13;;;25.82;57.02
41703;BME280;861;48.808;9.006;2022-10-16T13:31:02;97287.03;;;25.62;59.21
41703;BME280;861;48.808;9.006;2022-10-16T13:33:40;97287.56;;;25.51;57.96
41703;BME280;861;48.808;9.006;2022-10-16T13:36:34;97286.63;;;25.31;57.74
41703;BME280;861;48.808;9.006;2022-10-16T13:39:29;97287.50;;;25.61;58.27
41703;BME280;861;48.808;9.006;2022-10-16T13:42:17;97299.78;;;25.54;58.57
41703;BME280;861;48.808;9.006;2022-10-16T13:44:53;97288.84;;;25.65;58.71
41703;BME280;861;48.808;9.006;2022-10-16T13:47:28;97296.09;;;25.33;58.51
41703;BME280;861;48.808;9.006;2022-10-16T13:50:17;97297.84;;;25.22;59.74
41703;BME280;861;48.808;9.006;2022-10-16T13:52:45;97289.41;;;25.31;59.44
41703;BME280;861;48.808;9.006;2022-10-16T13:55:15;97282.09;;;25.57;58.27
41703;BME280;861;48.808;9.006;2022-10-16T13:57:44;97289.72;;;25.33;59.03
41703;BME280;861;48.808;9.006;2022-10-16T14:00:27;97285.50;;;24.67;61.49
41703;BME280;861;48.808;9.006;2022-10-16T14:03:12;97290.00;;;24.55;62.02
41703;BME280;861;48.808;9.006;2022-10-16T14:06:14;97287.75;;;24.45;64.81
41703;BME280;861;48.808;9.006;2022-10-16T14:09:06;97288.53;;;24.45;63.21
41703;BME280;861;48.808;9.006;2022-10-16T14:11:51;97284.72;;;24.66;62.36
41703;BME280;861;48.808;9.006;2022-10-16T14:14:22;97289.53;;;24.66;62.10
41703;BME280;861;48.808;9.006;2022-10-16T14:16:50;97294.59;;;24.76;61.17
41703;BME280;861;48.808;9.006;2022-10-16T14:19:28;97291.78;;;24.44;64.14
41703;BME280;861;48.808;9.006;2022-10-16T14:21:59;97295.09;;;24.24;64.03
41703;BME280;861;48.808;9.006;2022-10-16T14:24:31;97288.63;;;24.18;63.66
41703;BME280;861;48.808;9.006;2022-10-16T14:27:01;97302.13;;;24.10;63.82
41703;BME280;861;48.808;9.006;2022-10-16T14:29:30;97301.66;;;24.12;65.47
41703;BME280;861;48.808;9.006;2022-10-16T14:32:05;97302.28;;;24.07;65.33
41703;BME280;861;48.808;9.006;2022-10-16T14:34:36;97300.25;;;24.17;64.34
41703;BME280;861;48.808;9.006;2022-10-16T14:37:26;97308.56;;;24.26;63.82
41703;BME280;861;48.808;9.006;2022-10-16T14:39:56;97295.63;;;24.46;63.23
41703;BME280;861;48.808;9.006;2022-10-16T14:42:26;97299.09;;;24.32;63.71
41703;BME280;861;48.808;9.006;2022-10-16T14:44:55;97306.25;;;24.24;65.06
41703;BME280;861;48.808;9.006;2022-10-16T14:47:27;97301.56;;;24.30;63.31
41703;BME280;861;48.808;9.006;2022-10-16T14:49:55;97304.88;;;24.20;64.46
41703;BME280;861;48.808;9.006;2022-10-16T14:52:24;97306.19;;;24.33;62.84
41703;BME280;861;48.808;9.006;2022-10-16T14:54:51;97304.09;;;24.19;64.40
41703;BME280;861;48.808;9.006;2022-10-16T14:57:27;97310.31;;;24.14;63.93
41703;BME280;861;48.808;9.006;2022-10-16T15:00:00;97301.06;;;23.99;64.38
41703;BME280;861;48.808;9.006;2022-10-16T15:02:35;97303.38;;;23.91;66.26
41703;BME280;861;48.808;9.006;2022-10-16T15:07:47;97301.56;;;23.79;65.50
41703;BME280;861;48.808;9.006;2022-10-16T15:10:17;97296.75;;;23.80;65.43
41703;BME280;861;48.808;9.006;2022-10-16T15:12:44;97299.84;;;23.73;65.73
41703;BME280;861;48.808;9.006;2022-10-16T15:15:44;97301.25;;;23.77;66.80
41703;BME280;861;48.808;9.006;2022-10-16T15:18:12;97301.09;;;23.81;66.30
41703;BME280;861;48.808;9.006;2022-10-16T15:20:41;97300.91;;;23.75;66.70
41703;BME280;861;48.808;9.006;2022-10-16T15:23:18;97304.50;;;23.76;66.98
41703;BME280;861;48.808;9.006;2022-10-16T15:25:51;97303.38;;;23.73;66.84
41703;BME280;861;48.808;9.006;2022-10-16T15:28:22;97298.00;;;23.70;66.70
41703;BME280;861;48.808;9.006;2022-10-16T15:30:53;97300.31;;;23.62;67.17